sensor_id;sensor_type;location;lat;lon;timestamp;pressure;altitude;pressure_sealevel;temperature;humidity
6194;BME280;3130;41.564;23.280;2023-07-28T00:00:51;98840.22;;;17.49;nan
6194;BME280;3130;41.564;23.280;2023-07-28T00:03:18;98842.66;;;17.41;nan
6194;BME280;3130;41.564;23.280;2023-07-28T00:05:45;98807.44;;;17.39;nan
6194;BME280;3130;41.564;23.280;2023-07-28T00:08:12;98837.19;;;17.73;nan
6194;BME280;3130;41.564;23.280;2023-07-28T00:10:40;98685.72;;;16.52;nan
6194;BME280;3130;41.564;23.280;2023-07-28T00:13:07;98845.66;;;17.46;nan
6194;BME280;3130;41.564;23.280;2023-07-28T00:15:35;98830.88;;;17.18;nan
6194;BME280;3130;41.564;23.280;2023-07-28T00:18:04;98845.75;;;17.17;nan
6194;BME280;3130;41.564;23.280;2023-07-28T00:20:31;98864.94;;;17.05;nan
6194;BME280;3130;41.564;23.280;2023-07-28T00:22:58;98774.28;;;16.46;nan
6194;BME280;3130;41.564;23.280;2023-07-28T00:25:25;98870.09;;;16.86;nan
6194;BME280;3130;41.564;23.280;2023-07-28T00:27:52;98853.09;;;16.63;nan
6194;BME280;3130;41.564;23.280;2023-07-28T00:30:19;98881.81;;;16.90;nan
6194;BME280;3130;41.564;23.280;2023-07-28T00:32:47;98876.88;;;16.77;nan
6194;BME280;3130;41.564;23.280;2023-07-28T00:35:15;98871.38;;;16.71;nan
6194;BME280;3130;41.564;23.280;2023-07-28T00:37:42;98868.88;;;16.60;nan
6194;BME280;3130;41.564;23.280;2023-07-28T00:40:10;98756.56;;;15.92;nan
6194;BME280;3130;41.564;23.280;2023-07-28T00:42:38;98860.69;;;16.55;nan
6194;BME280;3130;41.564;23.280;2023-07-28T00:45:06;98863.16;;;16.56;nan
6194;BME280;3130;41.564;23.280;2023-07-28T00:47:33;98871.97;;;16.54;nan
6194;BME280;3130;41.564;23.280;2023-07-28T00:50:01;98870.78;;;16.58;nan
6194;BME280;3130;41.564;23.280;2023-07-28T00:52:29;98872.91;;;16.73;nan
6194;BME280;3130;41.564;23.280;2023-07-28T00:54:56;98876.38;;;16.93;nan
6194;BME280;3130;41.564;23.280;2023-07-28T00:57:23;98867.38;;;16.97;nan
6194;BME280;3130;41.564;23.280;2023-07-28T00:59:51;98837.19;;;16.77;nan
6194;BME280;3130;41.564;23.280;2023-07-28T01:02:18;98855.47;;;16.75;nan
6194;BME280;3130;41.564;23.280;2023-07-28T01:04:47;98838.47;;;16.52;nan
6194;BME280;3130;41.564;23.280;2023-07-28T01:07:17;98863.75;;;16.69;nan
6194;BME280;3130;41.564;23.280;2023-07-28T01:09:53;98878.91;;;16.83;nan
6194;BME280;3130;41.564;23.280;2023-07-28T01:12:24;98881.00;;;16.89;nan
6194;BME280;3130;41.564;23.280;2023-07-28T01:14:51;98846.06;;;16.74;nan
6194;BME280;3130;41.564;23.280;2023-07-28T01:17:18;98834.13;;;16.62;nan
6194;BME280;3130;41.564;23.280;2023-07-28T01:19:45;98875.56;;;16.92;nan
6194;BME280;3130;41.564;23.280;2023-07-28T01:22:35;98874.09;;;17.09;nan
6194;BME280;3130;41.564;23.280;2023-07-28T01:25:16;98874.38;;;17.24;nan
6194;BME280;3130;41.564;23.280;2023-07-28T01:27:47;98880.72;;;17.41;nan
6194;BME280;3130;41.564;23.280;2023-07-28T01:30:14;98709.16;;;16.41;nan
6194;BME280;3130;41.564;23.280;2023-07-28T01:32:41;98741.63;;;16.74;nan
6194;BME280;3130;41.564;23.280;2023-07-28T01:35:09;98867.63;;;17.52;nan
6194;BME280;3130;41.564;23.280;2023-07-28T01:37:36;98868.56;;;17.41;nan
6194;BME280;3130;41.564;23.280;2023-07-28T01:40:03;98869.88;;;17.26;nan
6194;BME280;3130;41.564;23.280;2023-07-28T01:42:31;98861.13;;;17.09;nan
6194;BME280;3130;41.564;23.280;2023-07-28T01:44:59;98798.94;;;16.50;nan
6194;BME280;3130;41.564;23.280;2023-07-28T01:47:26;98775.00;;;16.28;nan
6194;BME280;3130;41.564;23.280;2023-07-28T01:49:54;98770.13;;;16.05;nan
6194;BME280;3130;41.564;23.280;2023-07-28T01:52:21;98873.41;;;16.67;nan
6194;BME280;3130;41.564;23.280;2023-07-28T01:54:48;98878.59;;;16.67;nan
6194;BME280;3130;41.564;23.280;2023-07-28T01:57:16;98875.75;;;16.70;nan
6194;BME280;3130;41.564;23.280;2023-07-28T01:59:43;98876.03;;;16.77;nan
6194;BME280;3130;41.564;23.280;2023-07-28T02:02:11;98882.38;;;16.93;nan
6194;BME280;3130;41.564;23.280;2023-07-28T02:04:38;98867.75;;;16.83;nan
6194;BME280;3130;41.564;23.280;2023-07-28T02:07:05;98881.84;;;17.09;nan
6194;BME280;3130;41.564;23.280;2023-07-28T02:09:33;98765.81;;;16.44;nan
6194;BME280;3130;41.564;23.280;2023-07-28T02:12:00;98789.88;;;16.65;nan
6194;BME280;3130;41.564;23.280;2023-07-28T02:14:26;98888.91;;;17.36;nan
6194;BME280;3130;41.564;23.280;2023-07-28T02:16:54;98889.56;;;17.29;nan
6194;BME280;3130;41.564;23.280;2023-07-28T02:19:22;98890.81;;;17.34;nan
6194;BME280;3130;41.564;23.280;2023-07-28T02:21:49;98893.28;;;17.45;nan
6194;BME280;3130;41.564;23.280;2023-07-28T02:24:16;98895.88;;;17.45;nan
6194;BME280;3130;41.564;23.280;2023-07-28T02:26:43;98897.41;;;17.48;nan
6194;BME280;3130;41.564;23.280;2023-07-28T02:29:10;98785.81;;;16.82;nan
6194;BME280;3130;41.564;23.280;2023-07-28T02:31:37;98895.13;;;17.24;nan
6194;BME280;3130;41.564;23.280;2023-07-28T02:34:04;98901.22;;;16.95;nan
6194;BME280;3130;41.564;23.280;2023-07-28T02:36:33;98866.81;;;16.84;nan
6194;BME280;3130;41.564;23.280;2023-07-28T02:39:00;98900.41;;;17.04;nan
6194;BME280;3130;41.564;23.280;2023-07-28T02:41:27;98897.41;;;17.09;nan
6194;BME280;3130;41.564;23.280;2023-07-28T02:43:54;98897.28;;;17.10;nan
6194;BME280;3130;41.564;23.280;2023-07-28T02:46:21;98904.50;;;17.16;nan
6194;BME280;3130;41.564;23.280;2023-07-28T02:48:48;98886.91;;;17.01;nan
6194;BME280;3130;41.564;23.280;2023-07-28T02:51:15;98904.38;;;16.69;nan
6194;BME280;3130;41.564;23.280;2023-07-28T02:53:43;98880.78;;;16.21;nan
6194;BME280;3130;41.564;23.280;2023-07-28T02:56:10;98889.91;;;16.25;nan
6194;BME280;3130;41.564;23.280;2023-07-28T02:58:37;98903.38;;;16.19;nan
6194;BME280;3130;41.564;23.280;2023-07-28T03:01:04;98897.91;;;16.13;nan
6194;BME280;3130;41.564;23.280;2023-07-28T03:03:31;98894.03;;;16.08;nan
6194;BME280;3130;41.564;23.280;2023-07-28T03:05:58;98851.78;;;15.77;nan
6194;BME280;3130;41.564;23.280;2023-07-28T03:08:25;98908.19;;;16.04;nan
6194;BME280;3130;41.564;23.280;2023-07-28T03:10:57;98868.38;;;15.95;nan
6194;BME280;3130;41.564;23.280;2023-07-28T03:13:24;98866.25;;;16.10;nan
6194;BME280;3130;41.564;23.280;2023-07-28T03:15:51;98894.72;;;16.10;nan
6194;BME280;3130;41.564;23.280;2023-07-28T03:18:18;98893.91;;;16.09;nan
6194;BME280;3130;41.564;23.280;2023-07-28T03:20:45;98819.91;;;15.56;nan
6194;BME280;3130;41.564;23.280;2023-07-28T03:23:13;98733.63;;;14.85;nan
6194;BME280;3130;41.564;23.280;2023-07-28T03:25:40;98897.81;;;15.83;nan
6194;BME280;3130;41.564;23.280;2023-07-28T03:28:08;98877.59;;;15.57;nan
6194;BME280;3130;41.564;23.280;2023-07-28T03:30:35;98892.22;;;15.67;nan
6194;BME280;3130;41.564;23.280;2023-07-28T03:33:02;98892.06;;;15.48;nan
6194;BME280;3130;41.564;23.280;2023-07-28T03:35:29;98866.66;;;15.33;nan
6194;BME280;3130;41.564;23.280;2023-07-28T03:37:56;98906.63;;;15.60;nan
6194;BME280;3130;41.564;23.280;2023-07-28T03:40:23;98914.47;;;15.59;nan
6194;BME280;3130;41.564;23.280;2023-07-28T03:42:51;98766.56;;;14.61;nan
6194;BME280;3130;41.564;23.280;2023-07-28T03:45:20;98931.16;;;15.66;nan
6194;BME280;3130;41.564;23.280;2023-07-28T03:47:47;98928.09;;;15.61;nan
6194;BME280;3130;41.564;23.280;2023-07-28T03:50:14;98930.94;;;15.58;nan
6194;BME280;3130;41.564;23.280;2023-07-28T03:52:41;98819.50;;;14.87;nan
6194;BME280;3130;41.564;23.280;2023-07-28T03:55:08;98865.16;;;14.98;nan
6194;BME280;3130;41.564;23.280;2023-07-28T03:57:35;98906.13;;;15.13;nan
6194;BME280;3130;41.564;23.280;2023-07-28T04:00:03;98781.25;;;14.39;nan
6194;BME280;3130;41.564;23.280;2023-07-28T04:02:32;98943.00;;;15.26;nan
6194;BME280;3130;41.564;23.280;2023-07-28T04:04:59;98948.72;;;15.18;nan
6194;BME280;3130;41.564;23.280;2023-07-28T04:07:26;98951.09;;;15.11;nan
6194;BME280;3130;41.564;23.280;2023-07-28T04:09:53;98966.69;;;15.09;nan
6194;BME280;3130;41.564;23.280;2023-07-28T04:12:20;98907.91;;;14.69;nan
6194;BME280;3130;41.564;23.280;2023-07-28T04:14:47;98962.97;;;15.02;nan
6194;BME280;3130;41.564;23.280;2023-07-28T04:17:14;98885.97;;;14.41;nan
6194;BME280;3130;41.564;23.280;2023-07-28T04:19:43;98973.53;;;14.99;nan
6194;BME280;3130;41.564;23.280;2023-07-28T04:22:10;98971.97;;;14.97;nan
6194;BME280;3130;41.564;23.280;2023-07-28T04:24:37;98982.44;;;14.95;nan
6194;BME280;3130;41.564;23.280;2023-07-28T04:27:05;98964.72;;;14.91;nan
6194;BME280;3130;41.564;23.280;2023-07-28T04:29:33;98851.69;;;14.17;nan
6194;BME280;3130;41.564;23.280;2023-07-28T04:32:00;98928.19;;;14.73;nan
6194;BME280;3130;41.564;23.280;2023-07-28T04:34:27;98801.72;;;13.97;nan
6194;BME280;3130;41.564;23.280;2023-07-28T04:36:56;98987.81;;;15.25;nan
6194;BME280;3130;41.564;23.280;2023-07-28T04:39:24;98970.47;;;15.27;nan
6194;BME280;3130;41.564;23.280;2023-07-28T04:41:51;98969.16;;;15.32;nan
6194;BME280;3130;41.564;23.280;2023-07-28T04:44:18;98974.44;;;15.42;nan
6194;BME280;3130;41.564;23.280;2023-07-28T04:46:46;98988.97;;;15.65;nan
6194;BME280;3130;41.564;23.280;2023-07-28T04:49:13;98930.63;;;15.40;nan
6194;BME280;3130;41.564;23.280;2023-07-28T04:51:40;98998.25;;;15.99;nan
6194;BME280;3130;41.564;23.280;2023-07-28T04:54:09;98990.81;;;16.05;nan
6194;BME280;3130;41.564;23.280;2023-07-28T04:56:36;98828.88;;;15.10;nan
6194;BME280;3130;41.564;23.280;2023-07-28T04:59:03;98888.06;;;15.55;nan
6194;BME280;3130;41.564;23.280;2023-07-28T05:01:33;98980.25;;;16.28;nan
6194;BME280;3130;41.564;23.280;2023-07-28T05:04:00;99003.72;;;16.47;nan
6194;BME280;3130;41.564;23.280;2023-07-28T05:06:27;98869.63;;;15.80;nan
6194;BME280;3130;41.564;23.280;2023-07-28T05:08:54;99001.19;;;16.77;nan
6194;BME280;3130;41.564;23.280;2023-07-28T05:11:23;98909.56;;;16.28;nan
6194;BME280;3130;41.564;23.280;2023-07-28T05:13:50;99006.25;;;17.09;nan
6194;BME280;3130;41.564;23.280;2023-07-28T05:16:17;99001.78;;;17.20;nan
6194;BME280;3130;41.564;23.280;2023-07-28T05:18:44;99000.94;;;17.40;nan
6194;BME280;3130;41.564;23.280;2023-07-28T05:21:11;98992.94;;;17.52;nan
6194;BME280;3130;41.564;23.280;2023-07-28T05:23:38;98989.81;;;17.68;nan
6194;BME280;3130;41.564;23.280;2023-07-28T05:26:05;98994.50;;;17.93;nan
6194;BME280;3130;41.564;23.280;2023-07-28T05:28:34;98846.41;;;17.09;nan
6194;BME280;3130;41.564;23.280;2023-07-28T05:31:04;99010.13;;;18.30;nan
6194;BME280;3130;41.564;23.280;2023-07-28T05:33:31;98843.34;;;17.53;nan
6194;BME280;3130;41.564;23.280;2023-07-28T05:36:02;98978.66;;;18.52;nan
6194;BME280;3130;41.564;23.280;2023-07-28T05:38:30;98987.50;;;18.69;nan
6194;BME280;3130;41.564;23.280;2023-07-28T05:40:57;98849.31;;;18.01;nan
6194;BME280;3130;41.564;23.280;2023-07-28T05:43:26;98966.38;;;18.91;nan
6194;BME280;3130;41.564;23.280;2023-07-28T05:45:54;98915.41;;;18.80;nan
6194;BME280;3130;41.564;23.280;2023-07-28T05:48:21;98978.47;;;19.45;nan
6194;BME280;3130;41.564;23.280;2023-07-28T05:50:49;98979.41;;;19.71;nan
6194;BME280;3130;41.564;23.280;2023-07-28T05:53:17;98919.00;;;19.50;nan
6194;BME280;3130;41.564;23.280;2023-07-28T05:55:44;98968.69;;;20.01;nan
6194;BME280;3130;41.564;23.280;2023-07-28T05:58:11;98859.34;;;19.49;nan
6194;BME280;3130;41.564;23.280;2023-07-28T06:00:38;98967.22;;;20.24;nan
6194;BME280;3130;41.564;23.280;2023-07-28T06:03:09;98832.44;;;19.58;nan
6194;BME280;3130;41.564;23.280;2023-07-28T06:05:36;98963.03;;;20.48;nan
6194;BME280;3130;41.564;23.280;2023-07-28T06:08:04;98881.72;;;20.12;nan
6194;BME280;3130;41.564;23.280;2023-07-28T06:10:31;98890.72;;;20.25;nan
6194;BME280;3130;41.564;23.280;2023-07-28T06:12:58;98961.69;;;20.87;nan
6194;BME280;3130;41.564;23.280;2023-07-28T06:15:27;98973.88;;;21.12;nan
6194;BME280;3130;41.564;23.280;2023-07-28T06:17:54;98899.00;;;20.71;nan
6194;BME280;3130;41.564;23.280;2023-07-28T06:20:23;98973.56;;;21.15;nan
6194;BME280;3130;41.564;23.280;2023-07-28T06:22:50;98981.34;;;21.40;nan
6194;BME280;3130;41.564;23.280;2023-07-28T06:25:17;98982.25;;;21.65;nan
6194;BME280;3130;41.564;23.280;2023-07-28T06:27:44;98986.06;;;21.78;nan
6194;BME280;3130;41.564;23.280;2023-07-28T06:30:11;98876.53;;;21.12;nan
6194;BME280;3130;41.564;23.280;2023-07-28T06:32:39;98995.72;;;22.02;nan
6194;BME280;3130;41.564;23.280;2023-07-28T06:35:07;98986.56;;;22.06;nan
6194;BME280;3130;41.564;23.280;2023-07-28T06:37:37;98895.94;;;21.58;nan
6194;BME280;3130;41.564;23.280;2023-07-28T06:40:05;98888.28;;;21.73;nan
6194;BME280;3130;41.564;23.280;2023-07-28T06:42:35;98978.59;;;22.55;nan
6194;BME280;3130;41.564;23.280;2023-07-28T06:45:03;98826.94;;;21.69;nan
6194;BME280;3130;41.564;23.280;2023-07-28T06:47:39;98818.44;;;21.75;nan
6194;BME280;3130;41.564;23.280;2023-07-28T06:50:07;98912.13;;;22.41;nan
6194;BME280;3130;41.564;23.280;2023-07-28T06:52:36;98826.28;;;21.99;nan
6194;BME280;3130;41.564;23.280;2023-07-28T06:55:04;98989.31;;;23.08;nan
6194;BME280;3130;41.564;23.280;2023-07-28T06:57:34;98980.63;;;23.15;nan
6194;BME280;3130;41.564;23.280;2023-07-28T07:00:01;98935.59;;;22.81;nan
6194;BME280;3130;41.564;23.280;2023-07-28T07:02:29;98983.06;;;23.25;nan
6194;BME280;3130;41.564;23.280;2023-07-28T07:04:56;98985.56;;;23.48;nan
6194;BME280;3130;41.564;23.280;2023-07-28T07:07:23;98979.78;;;23.91;nan
6194;BME280;3130;41.564;23.280;2023-07-28T07:09:52;98975.50;;;24.21;nan
6194;BME280;3130;41.564;23.280;2023-07-28T07:12:20;98936.75;;;24.08;nan
6194;BME280;3130;41.564;23.280;2023-07-28T07:14:47;98970.28;;;24.57;nan
6194;BME280;3130;41.564;23.280;2023-07-28T07:17:15;98975.03;;;24.76;nan
6194;BME280;3130;41.564;23.280;2023-07-28T07:19:42;98971.06;;;24.95;nan
6194;BME280;3130;41.564;23.280;2023-07-28T07:22:09;98958.41;;;24.98;nan
6194;BME280;3130;41.564;23.280;2023-07-28T07:24:36;98962.56;;;25.22;nan
6194;BME280;3130;41.564;23.280;2023-07-28T07:27:07;98955.13;;;25.25;nan
6194;BME280;3130;41.564;23.280;2023-07-28T07:29:37;98959.47;;;25.47;nan
6194;BME280;3130;41.564;23.280;2023-07-28T07:32:05;98885.63;;;25.21;nan
6194;BME280;3130;41.564;23.280;2023-07-28T07:34:33;98895.22;;;25.50;nan
6194;BME280;3130;41.564;23.280;2023-07-28T07:37:00;98955.88;;;26.04;nan
6194;BME280;3130;41.564;23.280;2023-07-28T07:39:28;98948.53;;;26.00;nan
6194;BME280;3130;41.564;23.280;2023-07-28T07:41:55;98912.00;;;26.05;nan
6194;BME280;3130;41.564;23.280;2023-07-28T07:44:24;98796.34;;;25.42;nan
6194;BME280;3130;41.564;23.280;2023-07-28T07:46:51;98939.78;;;26.62;nan
6194;BME280;3130;41.564;23.280;2023-07-28T07:49:18;98891.66;;;26.41;nan
6194;BME280;3130;41.564;23.280;2023-07-28T07:51:45;98826.03;;;26.05;nan
6194;BME280;3130;41.564;23.280;2023-07-28T07:54:12;98928.47;;;26.95;nan
6194;BME280;3130;41.564;23.280;2023-07-28T07:56:42;98894.81;;;26.91;nan
6194;BME280;3130;41.564;23.280;2023-07-28T07:59:09;98932.72;;;27.30;nan
6194;BME280;3130;41.564;23.280;2023-07-28T08:01:37;98923.03;;;27.50;nan
6194;BME280;3130;41.564;23.280;2023-07-28T08:04:05;98778.19;;;26.90;nan
6194;BME280;3130;41.564;23.280;2023-07-28T08:06:32;98837.91;;;27.43;nan
6194;BME280;3130;41.564;23.280;2023-07-28T08:08:59;98931.75;;;28.62;nan
6194;BME280;3130;41.564;23.280;2023-07-28T08:11:26;98782.63;;;27.95;nan
6194;BME280;3130;41.564;23.280;2023-07-28T08:13:54;98911.16;;;29.03;nan
6194;BME280;3130;41.564;23.280;2023-07-28T08:16:21;98928.31;;;29.38;nan
6194;BME280;3130;41.564;23.280;2023-07-28T08:18:50;98893.22;;;29.24;nan
6194;BME280;3130;41.564;23.280;2023-07-28T08:21:17;98786.97;;;28.59;nan
6194;BME280;3130;41.564;23.280;2023-07-28T08:23:44;98920.78;;;29.35;nan
6194;BME280;3130;41.564;23.280;2023-07-28T08:26:11;98922.06;;;29.26;nan
6194;BME280;3130;41.564;23.280;2023-07-28T08:28:39;98836.88;;;28.80;nan
6194;BME280;3130;41.564;23.280;2023-07-28T08:31:06;98802.19;;;28.64;nan
6194;BME280;3130;41.564;23.280;2023-07-28T08:33:34;98894.22;;;29.23;nan
6194;BME280;3130;41.564;23.280;2023-07-28T08:36:02;98890.56;;;29.18;nan
6194;BME280;3130;41.564;23.280;2023-07-28T08:38:30;98874.19;;;29.03;nan
6194;BME280;3130;41.564;23.280;2023-07-28T08:40:57;98896.25;;;29.28;nan
6194;BME280;3130;41.564;23.280;2023-07-28T08:43:25;98798.88;;;28.81;nan
6194;BME280;3130;41.564;23.280;2023-07-28T08:45:53;98880.53;;;29.39;nan
6194;BME280;3130;41.564;23.280;2023-07-28T08:48:21;98886.22;;;29.43;nan
6194;BME280;3130;41.564;23.280;2023-07-28T08:50:48;98881.75;;;29.43;nan
6194;BME280;3130;41.564;23.280;2023-07-28T08:53:17;98894.34;;;29.48;nan
6194;BME280;3130;41.564;23.280;2023-07-28T08:55:44;98818.84;;;29.14;nan
6194;BME280;3130;41.564;23.280;2023-07-28T08:58:19;98878.63;;;29.53;nan
6194;BME280;3130;41.564;23.280;2023-07-28T09:00:46;98868.25;;;29.58;nan
6194;BME280;3130;41.564;23.280;2023-07-28T09:03:15;98865.50;;;29.71;nan
6194;BME280;3130;41.564;23.280;2023-07-28T09:05:43;98805.56;;;29.34;nan
6194;BME280;3130;41.564;23.280;2023-07-28T09:08:12;98866.03;;;29.85;nan
6194;BME280;3130;41.564;23.280;2023-07-28T09:10:45;98858.94;;;29.79;nan
6194;BME280;3130;41.564;23.280;2023-07-28T09:13:16;98846.97;;;29.77;nan
6194;BME280;3130;41.564;23.280;2023-07-28T09:15:44;98853.38;;;29.87;nan
6194;BME280;3130;41.564;23.280;2023-07-28T09:18:13;98850.97;;;29.86;nan
6194;BME280;3130;41.564;23.280;2023-07-28T09:20:41;98834.66;;;29.65;nan
6194;BME280;3130;41.564;23.280;2023-07-28T09:23:09;98805.63;;;29.58;nan
6194;BME280;3130;41.564;23.280;2023-07-28T09:25:37;98800.59;;;29.75;nan
6194;BME280;3130;41.564;23.280;2023-07-28T09:28:06;98828.78;;;30.11;nan
6194;BME280;3130;41.564;23.280;2023-07-28T09:30:45;98825.44;;;30.22;nan
6194;BME280;3130;41.564;23.280;2023-07-28T09:33:12;98777.03;;;29.97;nan
6194;BME280;3130;41.564;23.280;2023-07-28T09:35:47;98826.09;;;30.18;nan
6194;BME280;3130;41.564;23.280;2023-07-28T09:38:15;98830.53;;;30.24;nan
6194;BME280;3130;41.564;23.280;2023-07-28T09:40:43;98693.22;;;29.49;nan
6194;BME280;3130;41.564;23.280;2023-07-28T09:43:13;98832.59;;;30.40;nan
6194;BME280;3130;41.564;23.280;2023-07-28T09:45:42;98766.25;;;30.17;nan
6194;BME280;3130;41.564;23.280;2023-07-28T09:48:10;98818.78;;;30.38;nan
6194;BME280;3130;41.564;23.280;2023-07-28T09:50:40;98739.81;;;29.92;nan
6194;BME280;3130;41.564;23.280;2023-07-28T09:53:09;98806.56;;;30.37;nan
6194;BME280;3130;41.564;23.280;2023-07-28T09:55:39;98705.63;;;29.73;nan
6194;BME280;3130;41.564;23.280;2023-07-28T09:58:09;98792.13;;;30.33;nan
6194;BME280;3130;41.564;23.280;2023-07-28T10:00:40;98683.31;;;29.45;nan
6194;BME280;3130;41.564;23.280;2023-07-28T10:03:08;98712.91;;;29.77;nan
6194;BME280;3130;41.564;23.280;2023-07-28T10:05:36;98790.09;;;30.35;nan
6194;BME280;3130;41.564;23.280;2023-07-28T10:08:04;98791.56;;;30.49;nan
6194;BME280;3130;41.564;23.280;2023-07-28T10:10:32;98674.19;;;29.83;nan
6194;BME280;3130;41.564;23.280;2023-07-28T10:12:59;98727.16;;;30.19;nan
6194;BME280;3130;41.564;23.280;2023-07-28T10:15:31;98774.13;;;30.41;nan
6194;BME280;3130;41.564;23.280;2023-07-28T10:18:00;98709.56;;;30.06;nan
6194;BME280;3130;41.564;23.280;2023-07-28T10:20:33;98713.84;;;30.07;nan
6194;BME280;3130;41.564;23.280;2023-07-28T10:23:11;98760.88;;;30.41;nan
6194;BME280;3130;41.564;23.280;2023-07-28T10:25:40;98750.25;;;30.30;nan
6194;BME280;3130;41.564;23.280;2023-07-28T10:28:07;98758.91;;;30.37;nan
6194;BME280;3130;41.564;23.280;2023-07-28T10:30:54;98695.09;;;30.09;nan
6194;BME280;3130;41.564;23.280;2023-07-28T10:33:31;98755.97;;;30.45;nan
6194;BME280;3130;41.564;23.280;2023-07-28T10:35:59;98723.78;;;30.48;nan
6194;BME280;3130;41.564;23.280;2023-07-28T10:38:31;98730.31;;;30.63;nan
6194;BME280;3130;41.564;23.280;2023-07-28T10:41:07;98739.69;;;30.77;nan
6194;BME280;3130;41.564;23.280;2023-07-28T10:43:35;98735.09;;;30.73;nan
6194;BME280;3130;41.564;23.280;2023-07-28T10:46:04;98682.88;;;30.44;nan
6194;BME280;3130;41.564;23.280;2023-07-28T10:48:36;98575.66;;;29.87;nan
6194;BME280;3130;41.564;23.280;2023-07-28T10:51:03;98729.59;;;30.56;nan
6194;BME280;3130;41.564;23.280;2023-07-28T10:53:31;98735.16;;;30.48;nan
6194;BME280;3130;41.564;23.280;2023-07-28T10:55:59;98660.78;;;30.20;nan
6194;BME280;3130;41.564;23.280;2023-07-28T10:58:27;98696.13;;;30.62;nan
6194;BME280;3130;41.564;23.280;2023-07-28T11:00:54;98726.41;;;30.95;nan
6194;BME280;3130;41.564;23.280;2023-07-28T11:03:22;98715.22;;;30.93;nan
6194;BME280;3130;41.564;23.280;2023-07-28T11:05:51;98725.63;;;30.94;nan
6194;BME280;3130;41.564;23.280;2023-07-28T11:08:22;98689.38;;;30.77;nan
6194;BME280;3130;41.564;23.280;2023-07-28T11:10:50;98716.47;;;31.08;nan
6194;BME280;3130;41.564;23.280;2023-07-28T11:13:17;98702.06;;;31.04;nan
6194;BME280;3130;41.564;23.280;2023-07-28T11:15:44;98691.88;;;31.01;nan
6194;BME280;3130;41.564;23.280;2023-07-28T11:18:15;98625.69;;;30.72;nan
6194;BME280;3130;41.564;23.280;2023-07-28T11:20:42;98700.84;;;31.18;nan
6194;BME280;3130;41.564;23.280;2023-07-28T11:23:14;98618.88;;;30.65;nan
6194;BME280;3130;41.564;23.280;2023-07-28T11:25:44;98536.22;;;30.33;nan
6194;BME280;3130;41.564;23.280;2023-07-28T11:28:15;98695.31;;;31.20;nan
6194;BME280;3130;41.564;23.280;2023-07-28T11:30:43;98687.31;;;31.08;nan
6194;BME280;3130;41.564;23.280;2023-07-28T11:33:10;98682.84;;;31.09;nan
6194;BME280;3130;41.564;23.280;2023-07-28T11:35:45;98597.66;;;30.53;nan
6194;BME280;3130;41.564;23.280;2023-07-28T11:38:14;98679.13;;;31.10;nan
6194;BME280;3130;41.564;23.280;2023-07-28T11:40:43;98677.78;;;31.19;nan
6194;BME280;3130;41.564;23.280;2023-07-28T11:43:15;98502.56;;;30.22;nan
6194;BME280;3130;41.564;23.280;2023-07-28T11:45:45;98606.16;;;30.96;nan
6194;BME280;3130;41.564;23.280;2023-07-28T11:48:16;98608.81;;;30.96;nan
6194;BME280;3130;41.564;23.280;2023-07-28T11:50:43;98544.72;;;30.53;nan
6194;BME280;3130;41.564;23.280;2023-07-28T11:53:11;98536.44;;;30.73;nan
6194;BME280;3130;41.564;23.280;2023-07-28T11:55:40;98654.47;;;31.62;nan
6194;BME280;3130;41.564;23.280;2023-07-28T11:58:08;98608.06;;;31.30;nan
6194;BME280;3130;41.564;23.280;2023-07-28T12:00:39;98645.09;;;31.59;nan
6194;BME280;3130;41.564;23.280;2023-07-28T12:03:09;98510.53;;;30.75;nan
6194;BME280;3130;41.564;23.280;2023-07-28T12:05:38;98640.13;;;31.74;nan
6194;BME280;3130;41.564;23.280;2023-07-28T12:08:05;98527.16;;;31.16;nan
6194;BME280;3130;41.564;23.280;2023-07-28T12:15:55;98632.13;;;32.08;nan
6194;BME280;3130;41.564;23.280;2023-07-28T12:18:22;98637.00;;;32.11;nan
6194;BME280;3130;41.564;23.280;2023-07-28T12:20:56;98616.19;;;32.08;nan
6194;BME280;3130;41.564;23.280;2023-07-28T12:23:23;98623.00;;;32.16;nan
6194;BME280;3130;41.564;23.280;2023-07-28T12:25:51;98626.41;;;32.28;nan
6194;BME280;3130;41.564;23.280;2023-07-28T12:28:20;98606.16;;;32.22;nan
6194;BME280;3130;41.564;23.280;2023-07-28T12:30:48;98528.19;;;31.61;nan
6194;BME280;3130;41.564;23.280;2023-07-28T12:33:31;98461.34;;;30.15;nan
6194;BME280;3130;41.564;23.280;2023-07-28T12:35:59;98453.72;;;29.77;nan
6194;BME280;3130;41.564;23.280;2023-07-28T12:38:26;98580.13;;;30.82;nan
6194;BME280;3130;41.564;23.280;2023-07-28T12:40:53;98609.09;;;31.29;nan
6194;BME280;3130;41.564;23.280;2023-07-28T12:43:21;98613.13;;;31.54;nan
6194;BME280;3130;41.564;23.280;2023-07-28T12:45:48;98466.31;;;30.86;nan
6194;BME280;3130;41.564;23.280;2023-07-28T12:48:15;98542.50;;;31.60;nan
6194;BME280;3130;41.564;23.280;2023-07-28T12:50:43;98496.56;;;31.48;nan
6194;BME280;3130;41.564;23.280;2023-07-28T12:53:11;98465.13;;;31.40;nan
6194;BME280;3130;41.564;23.280;2023-07-28T12:55:39;98493.84;;;31.31;nan
6194;BME280;3130;41.564;23.280;2023-07-28T12:58:06;98520.44;;;31.71;nan
6194;BME280;3130;41.564;23.280;2023-07-28T13:00:33;98587.06;;;32.25;nan
6194;BME280;3130;41.564;23.280;2023-07-28T13:03:00;98591.28;;;32.37;nan
6194;BME280;3130;41.564;23.280;2023-07-28T13:05:27;98580.03;;;32.47;nan
6194;BME280;3130;41.564;23.280;2023-07-28T13:07:55;98585.34;;;32.47;nan
6194;BME280;3130;41.564;23.280;2023-07-28T13:10:22;98472.75;;;31.87;nan
6194;BME280;3130;41.564;23.280;2023-07-28T13:12:49;98566.88;;;32.52;nan
6194;BME280;3130;41.564;23.280;2023-07-28T13:15:16;98495.59;;;32.16;nan
6194;BME280;3130;41.564;23.280;2023-07-28T13:17:43;98552.13;;;32.61;nan
6194;BME280;3130;41.564;23.280;2023-07-28T13:20:11;98549.03;;;32.64;nan
6194;BME280;3130;41.564;23.280;2023-07-28T13:22:38;98543.50;;;32.37;nan
6194;BME280;3130;41.564;23.280;2023-07-28T13:25:07;98549.88;;;32.53;nan
6194;BME280;3130;41.564;23.280;2023-07-28T13:27:34;98515.72;;;32.45;nan
6194;BME280;3130;41.564;23.280;2023-07-28T13:30:01;98543.38;;;32.60;nan
6194;BME280;3130;41.564;23.280;2023-07-28T13:32:30;98494.00;;;32.31;nan
6194;BME280;3130;41.564;23.280;2023-07-28T13:34:57;98543.28;;;32.55;nan
6194;BME280;3130;41.564;23.280;2023-07-28T13:37:24;98538.59;;;32.46;nan
6194;BME280;3130;41.564;23.280;2023-07-28T13:39:51;98541.50;;;32.44;nan
6194;BME280;3130;41.564;23.280;2023-07-28T13:42:19;98519.94;;;32.41;nan